sensor_id;sensor_type;location;lat;lon;timestamp;P1;durP1;ratioP1;P2;durP2;ratioP2
55915;SDS011;41826;53.246;-6.670;2023-03-01T00:02:16;8.90;;;5.10;;
55915;SDS011;41826;53.246;-6.670;2023-03-01T00:04:41;8.95;;;5.20;;
55915;SDS011;41826;53.246;-6.670;2023-03-01T00:07:07;5.38;;;4.40;;
55915;SDS011;41826;53.246;-6.670;2023-03-01T00:09:32;7.32;;;5.55;;
55915;SDS011;41826;53.246;-6.670;2023-03-01T00:11:58;7.18;;;4.07;;
55915;SDS011;41826;53.246;-6.670;2023-03-01T00:14:26;7.40;;;3.63;;
55915;SDS011;41826;53.246;-6.670;2023-03-01T00:16:55;6.80;;;5.30;;
55915;SDS011;41826;53.246;-6.670;2023-03-01T00:19:20;10.95;;;5.97;;
55915;SDS011;41826;53.246;-6.670;2023-03-01T00:21:47;10.75;;;5.50;;
55915;SDS011;41826;53.246;-6.670;2023-03-01T00:24:13;7.32;;;5.18;;
55915;SDS011;41826;53.246;-6.670;2023-03-01T00:26:39;6.07;;;5.00;;
55915;SDS011;41826;53.246;-6.670;2023-03-01T00:29:04;9.80;;;5.78;;
55915;SDS011;41826;53.246;-6.670;2023-03-01T00:31:30;7.85;;;5.22;;
55915;SDS011;41826;53.246;-6.670;2023-03-01T00:33:58;8.32;;;5.55;;
55915;SDS011;41826;53.246;-6.670;2023-03-01T00:36:27;8.15;;;5.22;;
55915;SDS011;41826;53.246;-6.670;2023-03-01T00:38:54;9.40;;;5.97;;
55915;SDS011;41826;53.246;-6.670;2023-03-01T00:41:20;8.55;;;5.30;;
55915;SDS011;41826;53.246;-6.670;2023-03-01T00:43:51;10.10;;;5.35;;
55915;SDS011;41826;53.246;-6.670;2023-03-01T00:46:18;10.75;;;5.68;;
55915;SDS011;41826;53.246;-6.670;2023-03-01T00:48:46;12.63;;;5.65;;
55915;SDS011;41826;53.246;-6.670;2023-03-01T00:51:15;9.30;;;5.35;;
55915;SDS011;41826;53.246;-6.670;2023-03-01T00:53:42;11.27;;;5.80;;
55915;SDS011;41826;53.246;-6.670;2023-03-01T00:56:09;9.98;;;4.93;;
55915;SDS011;41826;53.246;-6.670;2023-03-01T00:58:36;7.28;;;4.63;;
55915;SDS011;41826;53.246;-6.670;2023-03-01T01:01:09;8.50;;;5.70;;
55915;SDS011;41826;53.246;-6.670;2023-03-01T01:03:42;10.73;;;5.72;;
55915;SDS011;41826;53.246;-6.670;2023-03-01T01:06:22;9.15;;;6.05;;
55915;SDS011;41826;53.246;-6.670;2023-03-01T01:08:50;7.47;;;4.72;;
55915;SDS011;41826;53.246;-6.670;2023-03-01T01:11:17;6.13;;;3.35;;
55915;SDS011;41826;53.246;-6.670;2023-03-01T01:13:44;8.15;;;6.05;;
55915;SDS011;41826;53.246;-6.670;2023-03-01T01:16:11;8.52;;;5.85;;
55915;SDS011;41826;53.246;-6.670;2023-03-01T01:18:37;9.57;;;5.68;;
55915;SDS011;41826;53.246;-6.670;2023-03-01T01:21:07;10.15;;;6.07;;
55915;SDS011;41826;53.246;-6.670;2023-03-01T01:23:36;10.33;;;6.03;;
55915;SDS011;41826;53.246;-6.670;2023-03-01T01:26:03;13.73;;;6.25;;
55915;SDS011;41826;53.246;-6.670;2023-03-01T01:28:36;11.05;;;5.57;;
55915;SDS011;41826;53.246;-6.670;2023-03-01T01:31:02;9.15;;;5.45;;
55915;SDS011;41826;53.246;-6.670;2023-03-01T01:33:28;13.93;;;6.85;;
55915;SDS011;41826;53.246;-6.670;2023-03-01T01:35:53;7.93;;;5.40;;
55915;SDS011;41826;53.246;-6.670;2023-03-01T01:38:19;10.45;;;5.68;;
55915;SDS011;41826;53.246;-6.670;2023-03-01T01:40:46;11.07;;;5.28;;
55915;SDS011;41826;53.246;-6.670;2023-03-01T01:43:19;10.07;;;4.97;;
55915;SDS011;41826;53.246;-6.670;2023-03-01T01:45:47;11.88;;;4.80;;
55915;SDS011;41826;53.246;-6.670;2023-03-01T01:48:15;10.02;;;4.93;;
55915;SDS011;41826;53.246;-6.670;2023-03-01T01:50:44;9.52;;;5.43;;
55915;SDS011;41826;53.246;-6.670;2023-03-01T01:53:11;11.27;;;4.82;;
55915;SDS011;41826;53.246;-6.670;2023-03-01T01:55:42;4.32;;;2.42;;
55915;SDS011;41826;53.246;-6.670;2023-03-01T01:58:11;5.93;;;2.22;;
55915;SDS011;41826;53.246;-6.670;2023-03-01T02:00:39;12.43;;;3.60;;
55915;SDS011;41826;53.246;-6.670;2023-03-01T02:03:10;9.18;;;3.80;;
55915;SDS011;41826;53.246;-6.670;2023-03-01T02:08:15;6.53;;;3.78;;
55915;SDS011;41826;53.246;-6.670;2023-03-01T02:10:43;5.95;;;3.33;;
55915;SDS011;41826;53.246;-6.670;2023-03-01T02:13:10;8.00;;;3.55;;
55915;SDS011;41826;53.246;-6.670;2023-03-01T02:15:37;6.72;;;3.13;;
55915;SDS011;41826;53.246;-6.670;2023-03-01T02:18:04;8.13;;;3.10;;
55915;SDS011;41826;53.246;-6.670;2023-03-01T02:23:13;5.03;;;2.67;;
55915;SDS011;41826;53.246;-6.670;2023-03-01T02:28:30;3.28;;;1.63;;
55915;SDS011;41826;53.246;-6.670;2023-03-01T02:31:00;1.38;;;0.68;;
55915;SDS011;41826;53.246;-6.670;2023-03-01T02:33:45;2.92;;;0.52;;
55915;SDS011;41826;53.246;-6.670;2023-03-01T02:36:15;0.40;;;0.20;;
55915;SDS011;41826;53.246;-6.670;2023-03-01T02:38:43;1.38;;;0.30;;
55915;SDS011;41826;53.246;-6.670;2023-03-01T02:41:10;1.60;;;0.65;;
55915;SDS011;41826;53.246;-6.670;2023-03-01T02:43:39;0.85;;;0.40;;
55915;SDS011;41826;53.246;-6.670;2023-03-01T02:46:07;1.65;;;0.40;;
55915;SDS011;41826;53.246;-6.670;2023-03-01T02:48:39;3.60;;;0.35;;
55915;SDS011;41826;53.246;-6.670;2023-03-01T02:51:19;0.45;;;0.28;;
55915;SDS011;41826;53.246;-6.670;2023-03-01T02:56:35;2.60;;;0.50;;
55915;SDS011;41826;53.246;-6.670;2023-03-01T02:59:00;1.83;;;0.47;;
55915;SDS011;41826;53.246;-6.670;2023-03-01T03:01:27;2.40;;;0.77;;
55915;SDS011;41826;53.246;-6.670;2023-03-01T03:04:02;2.60;;;0.60;;
55915;SDS011;41826;53.246;-6.670;2023-03-01T03:06:35;3.00;;;0.57;;
55915;SDS011;41826;53.246;-6.670;2023-03-01T03:09:00;1.30;;;0.30;;
55915;SDS011;41826;53.246;-6.670;2023-03-01T03:11:26;0.40;;;0.40;;
55915;SDS011;41826;53.246;-6.670;2023-03-01T03:13:51;2.35;;;0.57;;
55915;SDS011;41826;53.246;-6.670;2023-03-01T03:16:17;2.28;;;0.50;;
55915;SDS011;41826;53.246;-6.670;2023-03-01T03:18:43;1.65;;;0.38;;
55915;SDS011;41826;53.246;-6.670;2023-03-01T03:21:11;1.17;;;0.30;;
55915;SDS011;41826;53.246;-6.670;2023-03-01T03:23:37;4.32;;;0.47;;
55915;SDS011;41826;53.246;-6.670;2023-03-01T03:26:03;1.05;;;0.40;;
55915;SDS011;41826;53.246;-6.670;2023-03-01T03:28:30;1.48;;;0.75;;
55915;SDS011;41826;53.246;-6.670;2023-03-01T03:30:56;0.98;;;0.30;;
55915;SDS011;41826;53.246;-6.670;2023-03-01T03:33:23;3.63;;;0.65;;
55915;SDS011;41826;53.246;-6.670;2023-03-01T03:35:49;3.28;;;0.38;;
55915;SDS011;41826;53.246;-6.670;2023-03-01T03:38:16;1.17;;;0.30;;
55915;SDS011;41826;53.246;-6.670;2023-03-01T03:43:15;2.17;;;0.65;;
55915;SDS011;41826;53.246;-6.670;2023-03-01T03:45:43;4.28;;;0.52;;
55915;SDS011;41826;53.246;-6.670;2023-03-01T03:48:13;0.30;;;0.30;;
55915;SDS011;41826;53.246;-6.670;2023-03-01T03:50:39;0.28;;;0.28;;
55915;SDS011;41826;53.246;-6.670;2023-03-01T03:53:08;1.17;;;0.40;;
55915;SDS011;41826;53.246;-6.670;2023-03-01T03:55:36;0.25;;;0.25;;
55915;SDS011;41826;53.246;-6.670;2023-03-01T03:58:05;0.30;;;0.30;;
55915;SDS011;41826;53.246;-6.670;2023-03-01T04:00:38;1.45;;;0.35;;
55915;SDS011;41826;53.246;-6.670;2023-03-01T04:03:05;1.35;;;0.30;;
55915;SDS011;41826;53.246;-6.670;2023-03-01T04:05:31;1.63;;;0.63;;
55915;SDS011;41826;53.246;-6.670;2023-03-01T04:07:57;3.30;;;0.50;;
55915;SDS011;41826;53.246;-6.670;2023-03-01T04:10:36;0.30;;;0.30;;
55915;SDS011;41826;53.246;-6.670;2023-03-01T04:13:06;0.90;;;0.30;;
55915;SDS011;41826;53.246;-6.670;2023-03-01T04:15:34;0.20;;;0.20;;
55915;SDS011;41826;53.246;-6.670;2023-03-01T04:18:00;3.50;;;0.40;;
55915;SDS011;41826;53.246;-6.670;2023-03-01T04:20:27;0.93;;;0.28;;
55915;SDS011;41826;53.246;-6.670;2023-03-01T04:22:58;0.65;;;0.30;;
55915;SDS011;41826;53.246;-6.670;2023-03-01T04:25:24;4.00;;;0.60;;
55915;SDS011;41826;53.246;-6.670;2023-03-01T04:27:50;3.65;;;0.40;;
55915;SDS011;41826;53.246;-6.670;2023-03-01T04:30:17;2.13;;;0.68;;
55915;SDS011;41826;53.246;-6.670;2023-03-01T04:32:42;1.55;;;0.30;;
55915;SDS011;41826;53.246;-6.670;2023-03-01T04:35:08;0.52;;;0.40;;
55915;SDS011;41826;53.246;-6.670;2023-03-01T04:37:33;0.50;;;0.50;;
55915;SDS011;41826;53.246;-6.670;2023-03-01T04:40:00;2.17;;;0.30;;
55915;SDS011;41826;53.246;-6.670;2023-03-01T04:42:26;2.92;;;0.40;;
55915;SDS011;41826;53.246;-6.670;2023-03-01T04:44:51;3.63;;;0.40;;
55915;SDS011;41826;53.246;-6.670;2023-03-01T04:47:17;0.30;;;0.30;;
55915;SDS011;41826;53.246;-6.670;2023-03-01T04:49:42;0.57;;;0.30;;
55915;SDS011;41826;53.246;-6.670;2023-03-01T04:52:08;1.33;;;0.40;;
55915;SDS011;41826;53.246;-6.670;2023-03-01T04:54:34;0.47;;;0.30;;
55915;SDS011;41826;53.246;-6.670;2023-03-01T04:57:01;1.67;;;0.47;;
55915;SDS011;41826;53.246;-6.670;2023-03-01T04:59:27;0.28;;;0.28;;
55915;SDS011;41826;53.246;-6.670;2023-03-01T05:01:54;1.35;;;0.40;;
55915;SDS011;41826;53.246;-6.670;2023-03-01T05:04:21;5.60;;;0.30;;
55915;SDS011;41826;53.246;-6.670;2023-03-01T05:06:47;0.52;;;0.30;;
55915;SDS011;41826;53.246;-6.670;2023-03-01T05:09:12;1.50;;;0.47;;
55915;SDS011;41826;53.246;-6.670;2023-03-01T05:11:38;0.52;;;0.30;;
55915;SDS011;41826;53.246;-6.670;2023-03-01T05:14:04;0.30;;;0.30;;
55915;SDS011;41826;53.246;-6.670;2023-03-01T05:16:30;0.47;;;0.47;;
55915;SDS011;41826;53.246;-6.670;2023-03-01T05:18:57;0.35;;;0.30;;
55915;SDS011;41826;53.246;-6.670;2023-03-01T05:21:23;1.27;;;0.40;;
55915;SDS011;41826;53.246;-6.670;2023-03-01T05:23:48;0.47;;;0.30;;
55915;SDS011;41826;53.246;-6.670;2023-03-01T05:26:15;1.05;;;0.60;;
55915;SDS011;41826;53.246;-6.670;2023-03-01T05:28:42;3.53;;;1.85;;
55915;SDS011;41826;53.246;-6.670;2023-03-01T05:31:08;1.73;;;0.93;;
55915;SDS011;41826;53.246;-6.670;2023-03-01T05:33:37;4.95;;;1.13;;
55915;SDS011;41826;53.246;-6.670;2023-03-01T05:36:04;13.57;;;0.85;;
55915;SDS011;41826;53.246;-6.670;2023-03-01T05:38:31;4.72;;;1.17;;
55915;SDS011;41826;53.246;-6.670;2023-03-01T05:40:56;4.32;;;1.38;;
55915;SDS011;41826;53.246;-6.670;2023-03-01T05:43:22;3.42;;;1.08;;
55915;SDS011;41826;53.246;-6.670;2023-03-01T05:45:47;1.75;;;1.20;;
55915;SDS011;41826;53.246;-6.670;2023-03-01T05:48:13;0.75;;;0.60;;
55915;SDS011;41826;53.246;-6.670;2023-03-01T05:50:40;0.88;;;0.40;;
55915;SDS011;41826;53.246;-6.670;2023-03-01T05:53:11;1.20;;;0.52;;
55915;SDS011;41826;53.246;-6.670;2023-03-01T05:55:40;1.65;;;0.32;;
55915;SDS011;41826;53.246;-6.670;2023-03-01T05:58:07;0.32;;;0.30;;
55915;SDS011;41826;53.246;-6.670;2023-03-01T06:00:37;1.27;;;0.70;;
55915;SDS011;41826;53.246;-6.670;2023-03-01T06:03:02;0.55;;;0.30;;
55915;SDS011;41826;53.246;-6.670;2023-03-01T06:05:28;1.55;;;0.30;;
55915;SDS011;41826;53.246;-6.670;2023-03-01T06:07:54;1.60;;;0.40;;
55915;SDS011;41826;53.246;-6.670;2023-03-01T06:10:20;0.32;;;0.32;;
55915;SDS011;41826;53.246;-6.670;2023-03-01T06:12:47;0.52;;;0.32;;
55915;SDS011;41826;53.246;-6.670;2023-03-01T06:15:13;0.68;;;0.38;;
55915;SDS011;41826;53.246;-6.670;2023-03-01T06:17:40;0.63;;;0.43;;
55915;SDS011;41826;53.246;-6.670;2023-03-01T06:20:11;1.13;;;0.60;;
55915;SDS011;41826;53.246;-6.670;2023-03-01T06:22:38;0.65;;;0.32;;
55915;SDS011;41826;53.246;-6.670;2023-03-01T06:25:04;1.90;;;0.45;;
55915;SDS011;41826;53.246;-6.670;2023-03-01T06:27:30;4.18;;;0.45;;
55915;SDS011;41826;53.246;-6.670;2023-03-01T06:29:56;1.50;;;0.50;;
55915;SDS011;41826;53.246;-6.670;2023-03-01T06:32:21;1.85;;;0.75;;
55915;SDS011;41826;53.246;-6.670;2023-03-01T06:34:47;1.25;;;0.60;;
55915;SDS011;41826;53.246;-6.670;2023-03-01T06:37:12;4.70;;;0.60;;
55915;SDS011;41826;53.246;-6.670;2023-03-01T06:39:37;8.73;;;0.52;;
55915;SDS011;41826;53.246;-6.670;2023-03-01T06:42:04;1.35;;;0.50;;
55915;SDS011;41826;53.246;-6.670;2023-03-01T06:44:29;0.45;;;0.45;;
55915;SDS011;41826;53.246;-6.670;2023-03-01T06:46:55;0.55;;;0.40;;
55915;SDS011;41826;53.246;-6.670;2023-03-01T06:49:20;6.10;;;0.85;;
55915;SDS011;41826;53.246;-6.670;2023-03-01T06:51:46;1.90;;;0.47;;
55915;SDS011;41826;53.246;-6.670;2023-03-01T06:54:12;7.88;;;0.73;;
55915;SDS011;41826;53.246;-6.670;2023-03-01T06:56:37;1.08;;;0.43;;
55915;SDS011;41826;53.246;-6.670;2023-03-01T06:59:03;4.45;;;0.60;;
55915;SDS011;41826;53.246;-6.670;2023-03-01T07:01:29;1.67;;;0.60;;
55915;SDS011;41826;53.246;-6.670;2023-03-01T07:03:55;1.50;;;0.80;;
55915;SDS011;41826;53.246;-6.670;2023-03-01T07:06:21;5.47;;;0.60;;
55915;SDS011;41826;53.246;-6.670;2023-03-01T07:08:46;7.18;;;0.60;;
55915;SDS011;41826;53.246;-6.670;2023-03-01T07:11:12;1.20;;;0.50;;
55915;SDS011;41826;53.246;-6.670;2023-03-01T07:13:38;3.00;;;0.75;;
55915;SDS011;41826;53.246;-6.670;2023-03-01T07:16:04;0.45;;;0.30;;
55915;SDS011;41826;53.246;-6.670;2023-03-01T07:18:29;6.07;;;1.15;;
55915;SDS011;41826;53.246;-6.670;2023-03-01T07:20:55;3.42;;;0.95;;
55915;SDS011;41826;53.246;-6.670;2023-03-01T07:23:20;4.43;;;0.50;;
55915;SDS011;41826;53.246;-6.670;2023-03-01T07:25:51;6.60;;;0.90;;
55915;SDS011;41826;53.246;-6.670;2023-03-01T07:28:18;5.57;;;0.80;;
55915;SDS011;41826;53.246;-6.670;2023-03-01T07:30:43;2.67;;;0.40;;
55915;SDS011;41826;53.246;-6.670;2023-03-01T07:33:09;2.67;;;0.55;;
55915;SDS011;41826;53.246;-6.670;2023-03-01T07:35:35;2.28;;;0.52;;
55915;SDS011;41826;53.246;-6.670;2023-03-01T07:38:00;3.08;;;0.73;;
55915;SDS011;41826;53.246;-6.670;2023-03-01T07:40:25;4.20;;;0.50;;
55915;SDS011;41826;53.246;-6.670;2023-03-01T07:42:54;3.42;;;0.68;;
55915;SDS011;41826;53.246;-6.670;2023-03-01T07:45:21;0.80;;;0.50;;
55915;SDS011;41826;53.246;-6.670;2023-03-01T07:47:48;2.22;;;0.63;;
55915;SDS011;41826;53.246;-6.670;2023-03-01T07:50:15;3.65;;;0.70;;
55915;SDS011;41826;53.246;-6.670;2023-03-01T07:52:41;3.75;;;0.80;;
55915;SDS011;41826;53.246;-6.670;2023-03-01T07:55:06;0.68;;;0.50;;
55915;SDS011;41826;53.246;-6.670;2023-03-01T07:57:32;7.38;;;0.75;;
55915;SDS011;41826;53.246;-6.670;2023-03-01T07:59:57;0.50;;;0.45;;
55915;SDS011;41826;53.246;-6.670;2023-03-01T08:02:22;1.58;;;0.60;;
55915;SDS011;41826;53.246;-6.670;2023-03-01T08:04:48;0.68;;;0.40;;
55915;SDS011;41826;53.246;-6.670;2023-03-01T08:07:13;6.75;;;0.70;;
55915;SDS011;41826;53.246;-6.670;2023-03-01T08:09:39;4.10;;;0.80;;
55915;SDS011;41826;53.246;-6.670;2023-03-01T08:12:04;3.78;;;0.70;;
55915;SDS011;41826;53.246;-6.670;2023-03-01T08:14:31;2.53;;;1.13;;
55915;SDS011;41826;53.246;-6.670;2023-03-01T08:16:56;5.10;;;1.02;;
55915;SDS011;41826;53.246;-6.670;2023-03-01T08:19:22;5.63;;;1.20;;
55915;SDS011;41826;53.246;-6.670;2023-03-01T08:21:48;2.53;;;0.98;;
55915;SDS011;41826;53.246;-6.670;2023-03-01T08:24:14;6.57;;;1.10;;
55915;SDS011;41826;53.246;-6.670;2023-03-01T08:26:39;4.40;;;1.10;;
55915;SDS011;41826;53.246;-6.670;2023-03-01T08:29:05;3.70;;;1.50;;
55915;SDS011;41826;53.246;-6.670;2023-03-01T08:31:32;3.75;;;1.00;;
55915;SDS011;41826;53.246;-6.670;2023-03-01T08:34:01;2.60;;;1.42;;
55915;SDS011;41826;53.246;-6.670;2023-03-01T08:36:37;3.58;;;1.40;;
55915;SDS011;41826;53.246;-6.670;2023-03-01T08:39:05;3.50;;;1.38;;
55915;SDS011;41826;53.246;-6.670;2023-03-01T08:41:31;1.10;;;1.00;;
55915;SDS011;41826;53.246;-6.670;2023-03-01T08:43:57;2.97;;;0.75;;
55915;SDS011;41826;53.246;-6.670;2023-03-01T08:46:26;1.92;;;1.00;;
55915;SDS011;41826;53.246;-6.670;2023-03-01T08:48:56;2.33;;;1.33;;
55915;SDS011;41826;53.246;-6.670;2023-03-01T08:51:23;4.05;;;1.23;;
55915;SDS011;41826;53.246;-6.670;2023-03-01T08:53:49;1.13;;;0.75;;
55915;SDS011;41826;53.246;-6.670;2023-03-01T08:56:15;0.73;;;0.50;;
55915;SDS011;41826;53.246;-6.670;2023-03-01T08:58:43;5.75;;;1.55;;
55915;SDS011;41826;53.246;-6.670;2023-03-01T09:01:10;0.40;;;0.40;;
55915;SDS011;41826;53.246;-6.670;2023-03-01T09:03:37;1.10;;;0.40;;
55915;SDS011;41826;53.246;-6.670;2023-03-01T09:06:04;2.58;;;0.50;;
55915;SDS011;41826;53.246;-6.670;2023-03-01T09:08:31;4.45;;;0.73;;
55915;SDS011;41826;53.246;-6.670;2023-03-01T09:11:05;0.75;;;0.30;;
55915;SDS011;41826;53.246;-6.670;2023-03-01T09:13:32;0.30;;;0.30;;
55915;SDS011;41826;53.246;-6.670;2023-03-01T09:15:59;1.35;;;0.55;;
55915;SDS011;41826;53.246;-6.670;2023-03-01T09:18:26;0.65;;;0.50;;
55915;SDS011;41826;53.246;-6.670;2023-03-01T09:20:51;1.08;;;0.40;;
55915;SDS011;41826;53.246;-6.670;2023-03-01T09:23:19;0.40;;;0.40;;
55915;SDS011;41826;53.246;-6.670;2023-03-01T09:25:46;0.82;;;0.43;;
55915;SDS011;41826;53.246;-6.670;2023-03-01T09:28:11;2.05;;;0.40;;
55915;SDS011;41826;53.246;-6.670;2023-03-01T09:30:36;0.30;;;0.30;;
55915;SDS011;41826;53.246;-6.670;2023-03-01T09:33:02;0.65;;;0.30;;
55915;SDS011;41826;53.246;-6.670;2023-03-01T09:35:27;0.77;;;0.30;;
55915;SDS011;41826;53.246;-6.670;2023-03-01T09:37:53;1.08;;;0.63;;
55915;SDS011;41826;53.246;-6.670;2023-03-01T09:40:19;3.35;;;0.45;;
55915;SDS011;41826;53.246;-6.670;2023-03-01T09:42:51;1.38;;;0.40;;
55915;SDS011;41826;53.246;-6.670;2023-03-01T09:45:33;0.65;;;0.47;;
55915;SDS011;41826;53.246;-6.670;2023-03-01T09:48:00;7.28;;;0.55;;
55915;SDS011;41826;53.246;-6.670;2023-03-01T09:50:32;0.40;;;0.22;;
55915;SDS011;41826;53.246;-6.670;2023-03-01T09:55:45;0.45;;;0.45;;
55915;SDS011;41826;53.246;-6.670;2023-03-01T09:58:28;0.80;;;0.22;;
55915;SDS011;41826;53.246;-6.670;2023-03-01T10:06:38;0.28;;;0.28;;
55915;SDS011;41826;53.246;-6.670;2023-03-01T10:09:16;1.67;;;0.40;;
55915;SDS011;41826;53.246;-6.670;2023-03-01T10:11:47;1.35;;;0.30;;
55915;SDS011;41826;53.246;-6.670;2023-03-01T10:17:01;0.52;;;0.30;;
55915;SDS011;41826;53.246;-6.670;2023-03-01T10:19:44;3.63;;;0.43;;
55915;SDS011;41826;53.246;-6.670;2023-03-01T10:24:48;1.58;;;0.57;;
55915;SDS011;41826;53.246;-6.670;2023-03-01T10:27:23;3.10;;;0.50;;
55915;SDS011;41826;53.246;-6.670;2023-03-01T10:32:15;0.23;;;0.23;;
55915;SDS011;41826;53.246;-6.670;2023-03-01T10:34:42;1.10;;;0.40;;
55915;SDS011;41826;53.246;-6.670;2023-03-01T10:37:12;3.15;;;0.52;;
55915;SDS011;41826;53.246;-6.670;2023-03-01T10:42:38;0.30;;;0.30;;
55915;SDS011;41826;53.246;-6.670;2023-03-01T10:50:45;0.75;;;0.40;;
55915;SDS011;41826;53.246;-6.670;2023-03-01T10:53:28;1.80;;;0.40;;
55915;SDS011;41826;53.246;-6.670;2023-03-01T10:56:04;3.75;;;0.50;;
55915;SDS011;41826;53.246;-6.670;2023-03-01T10:58:32;0.68;;;0.35;;
55915;SDS011;41826;53.246;-6.670;2023-03-01T11:01:00;2.92;;;0.40;;
55915;SDS011;41826;53.246;-6.670;2023-03-01T11:03:35;1.20;;;0.43;;
55915;SDS011;41826;53.246;-6.670;2023-03-01T11:06:19;2.10;;;0.32;;
55915;SDS011;41826;53.246;-6.670;2023-03-01T11:08:47;0.35;;;0.28;;
55915;SDS011;41826;53.246;-6.670;2023-03-01T11:14:00;0.77;;;0.43;;
55915;SDS011;41826;53.246;-6.670;2023-03-01T11:16:35;0.38;;;0.22;;
55915;SDS011;41826;53.246;-6.670;2023-03-01T11:21:33;0.40;;;0.30;;
55915;SDS011;41826;53.246;-6.670;2023-03-01T11:24:01;1.45;;;0.30;;
55915;SDS011;41826;53.246;-6.670;2023-03-01T11:26:29;0.65;;;0.30;;
55915;SDS011;41826;53.246;-6.670;2023-03-01T11:29:00;2.72;;;0.40;;
55915;SDS011;41826;53.246;-6.670;2023-03-01T11:31:30;1.67;;;0.30;;
55915;SDS011;41826;53.246;-6.670;2023-03-01T11:33:58;0.60;;;0.60;;
55915;SDS011;41826;53.246;-6.670;2023-03-01T11:36:41;1.90;;;0.60;;
55915;SDS011;41826;53.246;-6.670;2023-03-01T11:41:52;2.05;;;0.60;;
55915;SDS011;41826;53.246;-6.670;2023-03-01T11:44:30;2.33;;;0.80;;
55915;SDS011;41826;53.246;-6.670;2023-03-01T12:20:21;0.30;;;0.30;;
55915;SDS011;41826;53.246;-6.670;2023-03-01T12:25:52;3.80;;;0.60;;
55915;SDS011;41826;53.246;-6.670;2023-03-01T12:50:21;0.30;;;0.30;;
55915;SDS011;41826;53.246;-6.670;2023-03-01T12:52:54;0.25;;;0.25;;
55915;SDS011;41826;53.246;-6.670;2023-03-01T12:57:56;1.55;;;0.20;;
55915;SDS011;41826;53.246;-6.670;2023-03-01T13:00:33;2.10;;;0.35;;
55915;SDS011;41826;53.246;-6.670;2023-03-01T13:03:12;0.47;;;0.47;;
55915;SDS011;41826;53.246;-6.670;2023-03-01T13:05:51;0.40;;;0.30;;
55915;SDS011;41826;53.246;-6.670;2023-03-01T13:08:31;1.30;;;0.65;;
55915;SDS011;41826;53.246;-6.670;2023-03-01T13:11:10;2.95;;;0.30;;
55915;SDS011;41826;53.246;-6.670;2023-03-01T13:13:41;0.30;;;0.30;;
55915;SDS011;41826;53.246;-6.670;2023-03-01T13:19:05;0.22;;;0.20;;
55915;SDS011;41826;53.246;-6.670;2023-03-01T13:21:33;0.40;;;0.40;;
55915;SDS011;41826;53.246;-6.670;2023-03-01T13:23:59;1.60;;;0.30;;
55915;SDS011;41826;53.246;-6.670;2023-03-01T13:26:24;0.30;;;0.30;;
55915;SDS011;41826;53.246;-6.670;2023-03-01T13:28:51;1.95;;;0.50;;
55915;SDS011;41826;53.246;-6.670;2023-03-01T13:33:49;8.30;;;0.60;;
55915;SDS011;41826;53.246;-6.670;2023-03-01T13:38:56;1.08;;;0.40;;
55915;SDS011;41826;53.246;-6.670;2023-03-01T13:46:47;1.75;;;0.40;;
55915;SDS011;41826;53.246;-6.670;2023-03-01T13:49:16;2.30;;;0.60;;
55915;SDS011;41826;53.246;-6.670;2023-03-01T13:51:48;3.53;;;0.80;;
55915;SDS011;41826;53.246;-6.670;2023-03-01T13:54:15;1.38;;;0.50;;
55915;SDS011;41826;53.246;-6.670;2023-03-01T13:56:44;3.10;;;0.70;;
55915;SDS011;41826;53.246;-6.670;2023-03-01T13:59:17;1.33;;;0.63;;
55915;SDS011;41826;53.246;-6.670;2023-03-01T14:01:51;4.03;;;0.70;;
55915;SDS011;41826;53.246;-6.670;2023-03-01T14:04:29;3.53;;;0.57;;
55915;SDS011;41826;53.246;-6.670;2023-03-01T14:07:10;4.93;;;0.90;;
55915;SDS011;41826;53.246;-6.670;2023-03-01T14:09:44;2.40;;;1.20;;
55915;SDS011;41826;53.246;-6.670;2023-03-01T14:15:02;3.33;;;0.95;;
55915;SDS011;41826;53.246;-6.670;2023-03-01T14:17:41;9.57;;;1.75;;
55915;SDS011;41826;53.246;-6.670;2023-03-01T14:20:13;0.47;;;0.47;;
55915;SDS011;41826;53.246;-6.670;2023-03-01T14:22:42;2.25;;;1.38;;
55915;SDS011;41826;53.246;-6.670;2023-03-01T14:25:22;3.40;;;1.65;;
55915;SDS011;41826;53.246;-6.670;2023-03-01T14:28:00;0.82;;;0.68;;
55915;SDS011;41826;53.246;-6.670;2023-03-01T14:30:37;2.35;;;1.10;;
55915;SDS011;41826;53.246;-6.670;2023-03-01T14:33:06;1.58;;;0.93;;
55915;SDS011;41826;53.246;-6.670;2023-03-01T14:35:51;3.03;;;0.60;;
55915;SDS011;41826;53.246;-6.670;2023-03-01T14:38:28;6.57;;;1.10;;
55915;SDS011;41826;53.246;-6.670;2023-03-01T14:40:55;1.27;;;0.95;;
55915;SDS011;41826;53.246;-6.670;2023-03-01T14:43:24;3.38;;;1.13;;
55915;SDS011;41826;53.246;-6.670;2023-03-01T14:45:52;2.08;;;0.90;;
55915;SDS011;41826;53.246;-6.670;2023-03-01T14:48:18;1.40;;;1.15;;
55915;SDS011;41826;53.246;-6.670;2023-03-01T14:50:44;2.35;;;0.80;;
55915;SDS011;41826;53.246;-6.670;2023-03-01T14:53:18;0.90;;;0.65;;
55915;SDS011;41826;53.246;-6.670;2023-03-01T14:55:48;2.88;;;1.20;;
55915;SDS011;41826;53.246;-6.670;2023-03-01T14:58:18;13.52;;;1.98;;
55915;SDS011;41826;53.246;-6.670;2023-03-01T15:00:48;2.08;;;1.88;;
55915;SDS011;41826;53.246;-6.670;2023-03-01T15:03:25;1.98;;;0.82;;
55915;SDS011;41826;53.246;-6.670;2023-03-01T15:05:58;9.80;;;1.40;;
55915;SDS011;41826;53.246;-6.670;2023-03-01T15:08:26;0.88;;;0.75;;
55915;SDS011;41826;53.246;-6.670;2023-03-01T15:13:28;4.72;;;1.83;;
55915;SDS011;41826;53.246;-6.670;2023-03-01T15:18:36;6.10;;;2.53;;
55915;SDS011;41826;53.246;-6.670;2023-03-01T15:21:06;6.63;;;1.95;;
55915;SDS011;41826;53.246;-6.670;2023-03-01T15:23:34;2.80;;;0.57;;
55915;SDS011;41826;53.246;-6.670;2023-03-01T15:26:02;3.47;;;1.20;;
55915;SDS011;41826;53.246;-6.670;2023-03-01T15:28:33;0.30;;;0.30;;
55915;SDS011;41826;53.246;-6.670;2023-03-01T15:33:48;1.85;;;0.45;;
55915;SDS011;41826;53.246;-6.670;2023-03-01T15:38:55;1.90;;;0.80;;
55915;SDS011;41826;53.246;-6.670;2023-03-01T15:41:27;2.13;;;0.60;;
55915;SDS011;41826;53.246;-6.670;2023-03-01T15:43:57;4.57;;;0.77;;
55915;SDS011;41826;53.246;-6.670;2023-03-01T15:46:31;0.70;;;0.60;;
55915;SDS011;41826;53.246;-6.670;2023-03-01T15:49:00;4.25;;;1.45;;
55915;SDS011;41826;53.246;-6.670;2023-03-01T15:51:30;4.95;;;1.13;;
55915;SDS011;41826;53.246;-6.670;2023-03-01T15:54:01;1.75;;;1.00;;
55915;SDS011;41826;53.246;-6.670;2023-03-01T15:56:32;2.38;;;1.33;;
55915;SDS011;41826;53.246;-6.670;2023-03-01T15:59:00;4.88;;;1.30;;
55915;SDS011;41826;53.246;-6.670;2023-03-01T16:01:26;6.97;;;2.22;;
55915;SDS011;41826;53.246;-6.670;2023-03-01T16:03:52;9.90;;;3.00;;
55915;SDS011;41826;53.246;-6.670;2023-03-01T16:06:18;6.32;;;1.42;;
55915;SDS011;41826;53.246;-6.670;2023-03-01T16:08:44;2.58;;;1.30;;
55915;SDS011;41826;53.246;-6.670;2023-03-01T16:11:11;3.42;;;1.35;;
55915;SDS011;41826;53.246;-6.670;2023-03-01T16:13:40;6.45;;;1.38;;
55915;SDS011;41826;53.246;-6.670;2023-03-01T16:16:06;2.30;;;0.70;;
55915;SDS011;41826;53.246;-6.670;2023-03-01T16:18:32;3.17;;;1.40;;
55915;SDS011;41826;53.246;-6.670;2023-03-01T16:20:57;2.92;;;1.55;;
55915;SDS011;41826;53.246;-6.670;2023-03-01T16:23:23;1.95;;;1.00;;
55915;SDS011;41826;53.246;-6.670;2023-03-01T16:25:49;0.30;;;0.30;;
55915;SDS011;41826;53.246;-6.670;2023-03-01T16:28:15;3.83;;;0.85;;
55915;SDS011;41826;53.246;-6.670;2023-03-01T16:30:45;4.82;;;0.70;;
55915;SDS011;41826;53.246;-6.670;2023-03-01T16:33:11;2.25;;;0.73;;
55915;SDS011;41826;53.246;-6.670;2023-03-01T16:35:39;5.80;;;1.27;;
55915;SDS011;41826;53.246;-6.670;2023-03-01T16:38:05;5.25;;;1.38;;
55915;SDS011;41826;53.246;-6.670;2023-03-01T16:40:30;12.13;;;1.05;;
55915;SDS011;41826;53.246;-6.670;2023-03-01T16:42:56;3.42;;;1.20;;
55915;SDS011;41826;53.246;-6.670;2023-03-01T16:45:25;0.70;;;0.40;;
55915;SDS011;41826;53.246;-6.670;2023-03-01T16:47:51;5.57;;;1.00;;
55915;SDS011;41826;53.246;-6.670;2023-03-01T16:50:17;2.50;;;0.70;;
55915;SDS011;41826;53.246;-6.670;2023-03-01T16:52:42;3.92;;;1.10;;
55915;SDS011;41826;53.246;-6.670;2023-03-01T16:55:08;5.45;;;2.75;;